sensor_id;sensor_type;location;lat;lon;timestamp;pressure;altitude;pressure_sealevel;temperature;humidity
49463;BME280;35357;51.722;0.500;2022-10-20T00:00:46;100984.67;;;14.28;100.00
49463;BME280;35357;51.722;0.500;2022-10-20T00:03:13;100977.92;;;14.64;100.00
49463;BME280;35357;51.722;0.500;2022-10-20T00:05:40;100973.00;;;13.83;100.00
49463;BME280;35357;51.722;0.500;2022-10-20T00:08:07;100965.07;;;14.30;100.00
49463;BME280;35357;51.722;0.500;2022-10-20T00:10:34;100957.69;;;14.54;100.00
49463;BME280;35357;51.722;0.500;2022-10-20T00:13:02;100947.54;;;14.72;100.00
49463;BME280;35357;51.722;0.500;2022-10-20T00:15:29;100943.20;;;14.27;100.00
49463;BME280;35357;51.722;0.500;2022-10-20T00:17:57;100942.36;;;13.34;100.00
49463;BME280;35357;51.722;0.500;2022-10-20T00:20:23;100935.69;;;14.64;100.00
49463;BME280;35357;51.722;0.500;2022-10-20T00:22:51;100923.11;;;14.73;100.00
49463;BME280;35357;51.722;0.500;2022-10-20T00:25:18;100919.72;;;14.32;100.00
49463;BME280;35357;51.722;0.500;2022-10-20T00:27:45;100912.58;;;13.81;100.00
49463;BME280;35357;51.722;0.500;2022-10-20T00:30:12;100907.41;;;13.75;100.00
49463;BME280;35357;51.722;0.500;2022-10-20T00:32:39;100904.82;;;13.65;100.00
49463;BME280;35357;51.722;0.500;2022-10-20T00:35:08;100899.86;;;13.87;100.00
49463;BME280;35357;51.722;0.500;2022-10-20T00:37:35;100897.52;;;14.30;100.00
49463;BME280;35357;51.722;0.500;2022-10-20T00:40:02;100894.76;;;14.60;100.00
49463;BME280;35357;51.722;0.500;2022-10-20T00:42:30;100896.06;;;14.30;100.00
49463;BME280;35357;51.722;0.500;2022-10-20T00:44:58;100897.70;;;14.26;100.00
49463;BME280;35357;51.722;0.500;2022-10-20T00:47:36;100896.48;;;14.92;100.00
49463;BME280;35357;51.722;0.500;2022-10-20T00:50:07;100891.73;;;15.33;100.00
49463;BME280;35357;51.722;0.500;2022-10-20T00:52:36;100892.58;;;14.09;100.00
49463;BME280;35357;51.722;0.500;2022-10-20T00:55:05;100896.34;;;13.68;100.00
49463;BME280;35357;51.722;0.500;2022-10-20T00:57:33;100889.97;;;14.15;100.00
49463;BME280;35357;51.722;0.500;2022-10-20T01:00:02;100882.76;;;13.75;100.00
49463;BME280;35357;51.722;0.500;2022-10-20T01:02:30;100876.79;;;14.31;100.00
49463;BME280;35357;51.722;0.500;2022-10-20T01:04:58;100866.50;;;14.90;100.00
49463;BME280;35357;51.722;0.500;2022-10-20T01:07:25;100866.71;;;15.26;100.00
49463;BME280;35357;51.722;0.500;2022-10-20T01:09:52;100863.59;;;14.98;100.00
49463;BME280;35357;51.722;0.500;2022-10-20T01:12:27;100856.51;;;14.29;100.00
49463;BME280;35357;51.722;0.500;2022-10-20T01:15:10;100854.72;;;14.30;100.00
49463;BME280;35357;51.722;0.500;2022-10-20T01:17:46;100852.74;;;14.10;100.00
49463;BME280;35357;51.722;0.500;2022-10-20T01:20:26;100844.00;;;14.23;100.00
49463;BME280;35357;51.722;0.500;2022-10-20T01:23:09;100829.96;;;14.32;100.00
49463;BME280;35357;51.722;0.500;2022-10-20T01:25:48;100820.88;;;13.44;100.00
49463;BME280;35357;51.722;0.500;2022-10-20T01:28:20;100816.90;;;13.93;100.00
49463;BME280;35357;51.722;0.500;2022-10-20T01:30:54;100820.88;;;13.75;100.00
49463;BME280;35357;51.722;0.500;2022-10-20T01:33:38;100824.53;;;13.89;100.00
49463;BME280;35357;51.722;0.500;2022-10-20T01:36:12;100826.07;;;14.71;100.00
49463;BME280;35357;51.722;0.500;2022-10-20T01:38:50;100824.43;;;13.81;100.00
49463;BME280;35357;51.722;0.500;2022-10-20T01:41:25;100821.43;;;13.92;100.00
49463;BME280;35357;51.722;0.500;2022-10-20T01:43:56;100818.20;;;13.78;100.00
49463;BME280;35357;51.722;0.500;2022-10-20T01:46:24;100825.80;;;13.60;100.00
49463;BME280;35357;51.722;0.500;2022-10-20T01:48:53;100835.69;;;14.24;100.00
49463;BME280;35357;51.722;0.500;2022-10-20T01:51:20;100839.79;;;14.49;100.00
49463;BME280;35357;51.722;0.500;2022-10-20T01:53:47;100840.55;;;14.95;100.00
49463;BME280;35357;51.722;0.500;2022-10-20T01:56:17;100835.65;;;14.62;100.00
49463;BME280;35357;51.722;0.500;2022-10-20T01:59:01;100828.92;;;14.87;100.00
49463;BME280;35357;51.722;0.500;2022-10-20T02:01:48;100825.68;;;15.26;100.00
49463;BME280;35357;51.722;0.500;2022-10-20T02:04:29;100821.30;;;14.89;100.00
49463;BME280;35357;51.722;0.500;2022-10-20T02:07:06;100811.99;;;14.84;100.00
49463;BME280;35357;51.722;0.500;2022-10-20T02:09:40;100806.97;;;14.73;100.00
49463;BME280;35357;51.722;0.500;2022-10-20T02:12:14;100810.82;;;15.08;100.00
49463;BME280;35357;51.722;0.500;2022-10-20T02:14:43;100808.84;;;13.81;100.00
49463;BME280;35357;51.722;0.500;2022-10-20T02:17:14;100809.81;;;15.27;100.00
49463;BME280;35357;51.722;0.500;2022-10-20T02:19:43;100807.88;;;15.35;100.00
49463;BME280;35357;51.722;0.500;2022-10-20T02:22:13;100799.23;;;14.86;100.00
49463;BME280;35357;51.722;0.500;2022-10-20T02:24:42;100794.71;;;14.88;100.00
49463;BME280;35357;51.722;0.500;2022-10-20T02:27:12;100791.61;;;14.89;100.00
49463;BME280;35357;51.722;0.500;2022-10-20T02:29:43;100791.63;;;15.46;100.00
49463;BME280;35357;51.722;0.500;2022-10-20T02:32:13;100782.56;;;15.03;100.00
49463;BME280;35357;51.722;0.500;2022-10-20T02:34:41;100777.31;;;14.96;100.00
49463;BME280;35357;51.722;0.500;2022-10-20T02:37:09;100782.30;;;15.54;100.00
49463;BME280;35357;51.722;0.500;2022-10-20T02:39:36;100785.71;;;14.96;100.00
49463;BME280;35357;51.722;0.500;2022-10-20T02:42:04;100784.42;;;15.67;100.00
49463;BME280;35357;51.722;0.500;2022-10-20T02:44:31;100788.29;;;15.66;100.00
49463;BME280;35357;51.722;0.500;2022-10-20T02:46:58;100780.16;;;15.20;100.00
49463;BME280;35357;51.722;0.500;2022-10-20T02:49:25;100783.65;;;15.36;100.00
49463;BME280;35357;51.722;0.500;2022-10-20T02:51:52;100779.29;;;15.30;100.00
49463;BME280;35357;51.722;0.500;2022-10-20T02:54:20;100767.82;;;14.96;100.00
49463;BME280;35357;51.722;0.500;2022-10-20T02:56:47;100767.98;;;15.00;100.00
49463;BME280;35357;51.722;0.500;2022-10-20T02:59:15;100752.43;;;14.31;100.00
49463;BME280;35357;51.722;0.500;2022-10-20T03:01:42;100746.36;;;14.70;100.00
49463;BME280;35357;51.722;0.500;2022-10-20T03:04:10;100742.97;;;15.25;100.00
49463;BME280;35357;51.722;0.500;2022-10-20T03:06:38;100742.37;;;14.98;100.00
49463;BME280;35357;51.722;0.500;2022-10-20T03:09:05;100745.99;;;15.11;100.00
49463;BME280;35357;51.722;0.500;2022-10-20T03:11:33;100746.60;;;15.07;100.00
49463;BME280;35357;51.722;0.500;2022-10-20T03:14:00;100745.75;;;14.91;100.00
49463;BME280;35357;51.722;0.500;2022-10-20T03:16:28;100747.28;;;14.67;100.00
49463;BME280;35357;51.722;0.500;2022-10-20T03:18:55;100744.21;;;14.83;100.00
49463;BME280;35357;51.722;0.500;2022-10-20T03:21:23;100736.13;;;15.81;100.00
49463;BME280;35357;51.722;0.500;2022-10-20T03:23:50;100732.41;;;15.89;100.00
49463;BME280;35357;51.722;0.500;2022-10-20T03:26:17;100727.86;;;15.86;100.00
49463;BME280;35357;51.722;0.500;2022-10-20T03:28:44;100718.05;;;16.05;100.00
49463;BME280;35357;51.722;0.500;2022-10-20T03:31:12;100722.71;;;14.42;100.00
49463;BME280;35357;51.722;0.500;2022-10-20T03:33:39;100711.07;;;15.66;100.00
49463;BME280;35357;51.722;0.500;2022-10-20T03:36:07;100719.19;;;16.33;100.00
49463;BME280;35357;51.722;0.500;2022-10-20T03:38:34;100723.68;;;15.41;100.00
49463;BME280;35357;51.722;0.500;2022-10-20T03:41:02;100714.31;;;15.62;100.00
49463;BME280;35357;51.722;0.500;2022-10-20T03:43:29;100706.71;;;15.59;100.00
49463;BME280;35357;51.722;0.500;2022-10-20T03:46:01;100703.73;;;15.14;100.00
49463;BME280;35357;51.722;0.500;2022-10-20T03:48:29;100705.92;;;15.56;100.00
49463;BME280;35357;51.722;0.500;2022-10-20T03:50:56;100700.41;;;16.02;100.00
49463;BME280;35357;51.722;0.500;2022-10-20T03:53:23;100711.26;;;16.04;100.00
49463;BME280;35357;51.722;0.500;2022-10-20T03:55:50;100711.93;;;16.53;100.00
49463;BME280;35357;51.722;0.500;2022-10-20T03:58:17;100713.02;;;16.34;100.00
49463;BME280;35357;51.722;0.500;2022-10-20T04:00:45;100699.59;;;16.02;100.00
49463;BME280;35357;51.722;0.500;2022-10-20T04:03:12;100690.30;;;16.75;99.61
49463;BME280;35357;51.722;0.500;2022-10-20T04:05:40;100692.70;;;16.48;99.68
49463;BME280;35357;51.722;0.500;2022-10-20T04:08:07;100699.86;;;16.42;98.86
49463;BME280;35357;51.722;0.500;2022-10-20T04:10:34;100707.59;;;17.11;96.42
49463;BME280;35357;51.722;0.500;2022-10-20T04:13:01;100703.87;;;17.04;95.95
49463;BME280;35357;51.722;0.500;2022-10-20T04:15:30;100691.46;;;17.39;95.15
49463;BME280;35357;51.722;0.500;2022-10-20T04:17:57;100679.38;;;17.44;92.15
49463;BME280;35357;51.722;0.500;2022-10-20T04:20:24;100674.71;;;16.91;95.35
49463;BME280;35357;51.722;0.500;2022-10-20T04:22:51;100674.88;;;17.18;94.37
49463;BME280;35357;51.722;0.500;2022-10-20T04:25:18;100675.67;;;16.91;95.40
49463;BME280;35357;51.722;0.500;2022-10-20T04:27:45;100678.93;;;16.90;97.06
49463;BME280;35357;51.722;0.500;2022-10-20T04:30:12;100685.31;;;17.02;96.64
49463;BME280;35357;51.722;0.500;2022-10-20T04:32:39;100681.35;;;17.30;95.16
49463;BME280;35357;51.722;0.500;2022-10-20T04:35:09;100677.91;;;17.21;93.63
49463;BME280;35357;51.722;0.500;2022-10-20T04:37:36;100672.81;;;18.03;90.84
49463;BME280;35357;51.722;0.500;2022-10-20T04:40:04;100669.82;;;17.99;89.54
49463;BME280;35357;51.722;0.500;2022-10-20T04:42:31;100664.23;;;16.98;94.14
49463;BME280;35357;51.722;0.500;2022-10-20T04:44:59;100658.45;;;17.35;93.68
49463;BME280;35357;51.722;0.500;2022-10-20T04:47:30;100650.87;;;16.63;96.60
49463;BME280;35357;51.722;0.500;2022-10-20T04:49:58;100640.10;;;16.18;100.00
49463;BME280;35357;51.722;0.500;2022-10-20T04:52:27;100642.47;;;16.37;100.00
49463;BME280;35357;51.722;0.500;2022-10-20T04:54:54;100637.74;;;16.43;98.47
49463;BME280;35357;51.722;0.500;2022-10-20T04:57:21;100631.59;;;16.82;97.00
49463;BME280;35357;51.722;0.500;2022-10-20T04:59:49;100626.91;;;16.96;96.85
49463;BME280;35357;51.722;0.500;2022-10-20T05:02:16;100621.10;;;16.46;97.90
49463;BME280;35357;51.722;0.500;2022-10-20T05:04:43;100615.01;;;16.06;99.78
49463;BME280;35357;51.722;0.500;2022-10-20T05:07:10;100613.86;;;16.86;97.43
49463;BME280;35357;51.722;0.500;2022-10-20T05:09:37;100610.86;;;16.82;97.54
49463;BME280;35357;51.722;0.500;2022-10-20T05:12:04;100605.20;;;16.45;99.04
49463;BME280;35357;51.722;0.500;2022-10-20T05:14:31;100607.81;;;16.20;100.00
49463;BME280;35357;51.722;0.500;2022-10-20T05:16:58;100610.77;;;16.86;97.93
49463;BME280;35357;51.722;0.500;2022-10-20T05:19:25;100608.41;;;16.49;98.39
49463;BME280;35357;51.722;0.500;2022-10-20T05:21:52;100608.97;;;16.20;100.00
49463;BME280;35357;51.722;0.500;2022-10-20T05:24:20;100613.79;;;16.15;99.15
49463;BME280;35357;51.722;0.500;2022-10-20T05:26:47;100612.69;;;16.00;100.00
49463;BME280;35357;51.722;0.500;2022-10-20T05:29:14;100606.41;;;16.15;100.00
49463;BME280;35357;51.722;0.500;2022-10-20T05:31:42;100601.38;;;16.24;100.00
49463;BME280;35357;51.722;0.500;2022-10-20T05:34:11;100596.34;;;15.92;100.00
49463;BME280;35357;51.722;0.500;2022-10-20T05:36:38;100594.82;;;16.49;99.34
49463;BME280;35357;51.722;0.500;2022-10-20T05:39:05;100590.31;;;16.44;100.00
49463;BME280;35357;51.722;0.500;2022-10-20T05:41:33;100585.52;;;15.79;100.00
49463;BME280;35357;51.722;0.500;2022-10-20T05:44:02;100580.41;;;16.03;100.00
49463;BME280;35357;51.722;0.500;2022-10-20T05:46:31;100575.69;;;16.42;100.00
49463;BME280;35357;51.722;0.500;2022-10-20T05:49:00;100569.32;;;16.71;98.15
49463;BME280;35357;51.722;0.500;2022-10-20T05:51:29;100563.67;;;16.94;97.22
49463;BME280;35357;51.722;0.500;2022-10-20T05:53:59;100561.63;;;16.28;99.09
49463;BME280;35357;51.722;0.500;2022-10-20T05:56:27;100561.52;;;17.08;96.67
49463;BME280;35357;51.722;0.500;2022-10-20T05:58:55;100561.14;;;16.76;95.83
49463;BME280;35357;51.722;0.500;2022-10-20T06:01:24;100561.49;;;17.03;96.11
49463;BME280;35357;51.722;0.500;2022-10-20T06:03:53;100563.96;;;16.89;97.17
49463;BME280;35357;51.722;0.500;2022-10-20T06:06:22;100557.80;;;16.84;97.30
49463;BME280;35357;51.722;0.500;2022-10-20T06:08:50;100549.00;;;17.25;94.69
49463;BME280;35357;51.722;0.500;2022-10-20T06:11:18;100546.79;;;17.57;94.49
49463;BME280;35357;51.722;0.500;2022-10-20T06:13:46;100547.85;;;17.53;93.97
49463;BME280;35357;51.722;0.500;2022-10-20T06:16:15;100546.28;;;17.70;93.41
49463;BME280;35357;51.722;0.500;2022-10-20T06:18:43;100541.79;;;17.75;91.13
49463;BME280;35357;51.722;0.500;2022-10-20T06:21:12;100536.82;;;17.47;92.53
49463;BME280;35357;51.722;0.500;2022-10-20T06:23:39;100533.20;;;16.79;95.56
49463;BME280;35357;51.722;0.500;2022-10-20T06:26:09;100537.13;;;17.53;94.76
49463;BME280;35357;51.722;0.500;2022-10-20T06:28:38;100542.69;;;17.13;94.33
49463;BME280;35357;51.722;0.500;2022-10-20T06:31:10;100544.68;;;17.38;92.81
49463;BME280;35357;51.722;0.500;2022-10-20T06:33:38;100544.92;;;17.64;92.54
49463;BME280;35357;51.722;0.500;2022-10-20T06:36:05;100543.55;;;18.05;91.16
49463;BME280;35357;51.722;0.500;2022-10-20T06:38:33;100534.40;;;17.71;92.27
49463;BME280;35357;51.722;0.500;2022-10-20T06:41:01;100532.68;;;16.91;95.53
49463;BME280;35357;51.722;0.500;2022-10-20T06:43:29;100535.55;;;16.01;100.00
49463;BME280;35357;51.722;0.500;2022-10-20T06:45:57;100526.12;;;15.99;100.00
49463;BME280;35357;51.722;0.500;2022-10-20T06:48:25;100523.23;;;15.49;100.00
49463;BME280;35357;51.722;0.500;2022-10-20T06:50:56;100518.42;;;15.43;100.00
49463;BME280;35357;51.722;0.500;2022-10-20T06:53:24;100508.88;;;15.59;100.00
49463;BME280;35357;51.722;0.500;2022-10-20T06:55:56;100501.81;;;15.65;100.00
49463;BME280;35357;51.722;0.500;2022-10-20T06:58:24;100503.48;;;16.25;100.00
49463;BME280;35357;51.722;0.500;2022-10-20T07:00:57;100495.77;;;15.61;100.00
49463;BME280;35357;51.722;0.500;2022-10-20T07:03:25;100496.76;;;16.37;100.00
49463;BME280;35357;51.722;0.500;2022-10-20T07:05:52;100487.52;;;17.07;99.45
49463;BME280;35357;51.722;0.500;2022-10-20T07:08:20;100486.58;;;16.88;98.18
49463;BME280;35357;51.722;0.500;2022-10-20T07:10:56;100481.62;;;16.89;100.00
49463;BME280;35357;51.722;0.500;2022-10-20T07:13:23;100481.67;;;16.44;100.00
49463;BME280;35357;51.722;0.500;2022-10-20T07:15:52;100473.49;;;15.24;100.00
49463;BME280;35357;51.722;0.500;2022-10-20T07:18:20;100474.64;;;15.26;100.00
49463;BME280;35357;51.722;0.500;2022-10-20T07:20:47;100475.16;;;15.33;100.00
49463;BME280;35357;51.722;0.500;2022-10-20T07:23:15;100470.17;;;16.04;100.00
49463;BME280;35357;51.722;0.500;2022-10-20T07:25:42;100465.78;;;16.01;100.00
49463;BME280;35357;51.722;0.500;2022-10-20T07:28:10;100470.60;;;15.48;100.00
49463;BME280;35357;51.722;0.500;2022-10-20T07:30:38;100468.55;;;15.40;100.00
49463;BME280;35357;51.722;0.500;2022-10-20T07:33:05;100468.72;;;15.20;100.00
49463;BME280;35357;51.722;0.500;2022-10-20T07:35:32;100467.71;;;15.78;100.00
49463;BME280;35357;51.722;0.500;2022-10-20T07:37:59;100470.18;;;14.85;100.00
49463;BME280;35357;51.722;0.500;2022-10-20T07:40:27;100465.16;;;15.05;100.00
49463;BME280;35357;51.722;0.500;2022-10-20T07:42:55;100464.66;;;15.05;100.00
49463;BME280;35357;51.722;0.500;2022-10-20T07:45:22;100457.59;;;14.86;100.00
49463;BME280;35357;51.722;0.500;2022-10-20T07:47:49;100456.88;;;14.42;100.00
49463;BME280;35357;51.722;0.500;2022-10-20T07:50:16;100463.27;;;14.63;100.00
49463;BME280;35357;51.722;0.500;2022-10-20T07:52:44;100465.73;;;14.93;100.00
49463;BME280;35357;51.722;0.500;2022-10-20T07:55:11;100471.72;;;15.26;100.00
49463;BME280;35357;51.722;0.500;2022-10-20T07:57:38;100474.59;;;15.71;100.00
49463;BME280;35357;51.722;0.500;2022-10-20T08:00:06;100478.22;;;15.98;100.00
49463;BME280;35357;51.722;0.500;2022-10-20T08:02:33;100480.77;;;15.87;100.00
49463;BME280;35357;51.722;0.500;2022-10-20T08:05:00;100492.56;;;16.30;100.00
49463;BME280;35357;51.722;0.500;2022-10-20T08:07:28;100494.24;;;16.00;100.00
49463;BME280;35357;51.722;0.500;2022-10-20T08:09:56;100487.02;;;16.54;100.00
49463;BME280;35357;51.722;0.500;2022-10-20T08:12:23;100484.68;;;15.59;100.00
49463;BME280;35357;51.722;0.500;2022-10-20T08:14:50;100479.55;;;16.11;100.00
49463;BME280;35357;51.722;0.500;2022-10-20T08:17:17;100484.20;;;16.94;100.00
49463;BME280;35357;51.722;0.500;2022-10-20T08:19:45;100479.29;;;16.70;100.00
49463;BME280;35357;51.722;0.500;2022-10-20T08:22:12;100474.77;;;16.85;100.00
49463;BME280;35357;51.722;0.500;2022-10-20T08:24:39;100463.98;;;17.25;100.00
49463;BME280;35357;51.722;0.500;2022-10-20T08:27:05;100459.31;;;17.28;100.00
49463;BME280;35357;51.722;0.500;2022-10-20T08:29:32;100457.20;;;17.55;100.00
49463;BME280;35357;51.722;0.500;2022-10-20T08:31:59;100451.77;;;17.51;100.00
49463;BME280;35357;51.722;0.500;2022-10-20T08:34:26;100446.58;;;17.65;100.00
49463;BME280;35357;51.722;0.500;2022-10-20T08:36:53;100443.90;;;17.51;100.00
49463;BME280;35357;51.722;0.500;2022-10-20T08:39:20;100439.90;;;17.66;100.00
49463;BME280;35357;51.722;0.500;2022-10-20T08:41:49;100435.37;;;18.60;100.00
49463;BME280;35357;51.722;0.500;2022-10-20T08:44:20;100429.27;;;16.75;100.00
49463;BME280;35357;51.722;0.500;2022-10-20T08:46:49;100426.96;;;18.07;100.00
49463;BME280;35357;51.722;0.500;2022-10-20T08:49:20;100420.91;;;18.32;100.00
49463;BME280;35357;51.722;0.500;2022-10-20T08:51:49;100419.94;;;16.91;100.00
49463;BME280;35357;51.722;0.500;2022-10-20T08:54:17;100414.96;;;16.07;100.00
49463;BME280;35357;51.722;0.500;2022-10-20T08:56:45;100418.53;;;17.79;100.00
49463;BME280;35357;51.722;0.500;2022-10-20T08:59:24;100405.84;;;17.25;100.00
49463;BME280;35357;51.722;0.500;2022-10-20T09:01:53;100400.38;;;16.81;100.00
49463;BME280;35357;51.722;0.500;2022-10-20T09:04:23;100390.06;;;16.23;100.00
49463;BME280;35357;51.722;0.500;2022-10-20T09:06:56;100395.37;;;17.07;100.00
49463;BME280;35357;51.722;0.500;2022-10-20T09:09:28;100407.50;;;17.24;100.00
49463;BME280;35357;51.722;0.500;2022-10-20T09:12:02;100409.03;;;17.16;100.00
49463;BME280;35357;51.722;0.500;2022-10-20T09:14:32;100402.83;;;18.35;99.73
49463;BME280;35357;51.722;0.500;2022-10-20T09:17:00;100406.76;;;18.39;100.00
49463;BME280;35357;51.722;0.500;2022-10-20T09:19:28;100406.48;;;18.11;100.00
49463;BME280;35357;51.722;0.500;2022-10-20T09:21:58;100414.60;;;17.77;100.00
49463;BME280;35357;51.722;0.500;2022-10-20T09:24:29;100416.55;;;18.41;98.98
49463;BME280;35357;51.722;0.500;2022-10-20T09:26:57;100430.84;;;18.65;98.75
49463;BME280;35357;51.722;0.500;2022-10-20T09:29:41;100446.94;;;18.86;96.66
49463;BME280;35357;51.722;0.500;2022-10-20T09:32:17;100448.61;;;19.28;94.64
49463;BME280;35357;51.722;0.500;2022-10-20T09:34:45;100449.93;;;18.58;96.10
49463;BME280;35357;51.722;0.500;2022-10-20T09:37:13;100440.07;;;19.06;95.64
49463;BME280;35357;51.722;0.500;2022-10-20T09:39:49;100437.82;;;18.95;94.78
49463;BME280;35357;51.722;0.500;2022-10-20T09:42:21;100431.78;;;19.06;94.77
49463;BME280;35357;51.722;0.500;2022-10-20T09:44:52;100436.08;;;18.97;95.15
49463;BME280;35357;51.722;0.500;2022-10-20T09:47:22;100448.99;;;19.15;94.78
49463;BME280;35357;51.722;0.500;2022-10-20T09:49:53;100452.06;;;19.34;94.21
49463;BME280;35357;51.722;0.500;2022-10-20T09:52:24;100425.25;;;18.57;96.13
49463;BME280;35357;51.722;0.500;2022-10-20T09:54:58;100420.66;;;18.29;95.11
49463;BME280;35357;51.722;0.500;2022-10-20T09:57:26;100438.86;;;18.17;96.51
49463;BME280;35357;51.722;0.500;2022-10-20T09:59:54;100429.68;;;18.96;93.73
49463;BME280;35357;51.722;0.500;2022-10-20T10:02:29;100426.94;;;19.17;93.16
49463;BME280;35357;51.722;0.500;2022-10-20T10:05:14;100431.88;;;19.69;91.14
49463;BME280;35357;51.722;0.500;2022-10-20T10:07:42;100434.68;;;19.33;91.81
49463;BME280;35357;51.722;0.500;2022-10-20T10:10:23;100440.75;;;18.66;93.64
49463;BME280;35357;51.722;0.500;2022-10-20T10:12:52;100447.62;;;19.67;89.53
49463;BME280;35357;51.722;0.500;2022-10-20T10:15:27;100453.55;;;18.94;92.47
49463;BME280;35357;51.722;0.500;2022-10-20T10:17:56;100457.28;;;19.69;91.14
49463;BME280;35357;51.722;0.500;2022-10-20T10:20:32;100451.71;;;19.30;91.53
49463;BME280;35357;51.722;0.500;2022-10-20T10:23:19;100452.36;;;19.35;93.11
49463;BME280;35357;51.722;0.500;2022-10-20T10:25:48;100449.61;;;19.55;92.31
49463;BME280;35357;51.722;0.500;2022-10-20T10:28:34;100447.47;;;19.47;92.05
49463;BME280;35357;51.722;0.500;2022-10-20T10:31:08;100445.00;;;19.50;92.81
49463;BME280;35357;51.722;0.500;2022-10-20T10:33:36;100438.82;;;19.68;91.06
49463;BME280;35357;51.722;0.500;2022-10-20T10:36:09;100429.59;;;20.16;90.76
49463;BME280;35357;51.722;0.500;2022-10-20T10:38:37;100426.45;;;20.37;88.87
49463;BME280;35357;51.722;0.500;2022-10-20T10:41:13;100420.14;;;19.71;91.99
49463;BME280;35357;51.722;0.500;2022-10-20T10:43:50;100419.36;;;19.85;91.14
49463;BME280;35357;51.722;0.500;2022-10-20T10:46:26;100423.25;;;20.30;89.43
49463;BME280;35357;51.722;0.500;2022-10-20T10:49:09;100416.82;;;20.37;89.75
49463;BME280;35357;51.722;0.500;2022-10-20T10:51:49;100406.32;;;20.69;88.99
49463;BME280;35357;51.722;0.500;2022-10-20T10:54:35;100405.84;;;20.40;89.17
49463;BME280;35357;51.722;0.500;2022-10-20T10:57:13;100412.39;;;20.21;91.67
49463;BME280;35357;51.722;0.500;2022-10-20T10:59:43;100404.72;;;20.68;89.86
49463;BME280;35357;51.722;0.500;2022-10-20T11:02:27;100406.23;;;20.81;88.68
49463;BME280;35357;51.722;0.500;2022-10-20T11:05:18;100400.32;;;20.59;89.46
49463;BME280;35357;51.722;0.500;2022-10-20T11:07:56;100407.01;;;20.77;88.64
49463;BME280;35357;51.722;0.500;2022-10-20T11:10:30;100408.19;;;20.28;88.89
49463;BME280;35357;51.722;0.500;2022-10-20T11:13:16;100407.65;;;20.46;89.28
49463;BME280;35357;51.722;0.500;2022-10-20T11:15:59;100395.11;;;20.30;89.02
49463;BME280;35357;51.722;0.500;2022-10-20T11:18:54;100388.63;;;20.50;89.08
49463;BME280;35357;51.722;0.500;2022-10-20T11:21:31;100377.04;;;20.68;89.61
49463;BME280;35357;51.722;0.500;2022-10-20T11:24:10;100369.95;;;20.53;89.68
49463;BME280;35357;51.722;0.500;2022-10-20T11:26:43;100372.20;;;20.64;90.35
49463;BME280;35357;51.722;0.500;2022-10-20T11:29:13;100370.86;;;20.24;90.26
49463;BME280;35357;51.722;0.500;2022-10-20T11:31:47;100369.92;;;20.90;90.56
49463;BME280;35357;51.722;0.500;2022-10-20T11:34:20;100367.86;;;21.25;90.00
49463;BME280;35357;51.722;0.500;2022-10-20T11:36:58;100373.01;;;21.02;90.02
49463;BME280;35357;51.722;0.500;2022-10-20T11:39:32;100371.42;;;21.08;90.72
49463;BME280;35357;51.722;0.500;2022-10-20T11:42:13;100369.03;;;21.40;89.45
49463;BME280;35357;51.722;0.500;2022-10-20T11:44:45;100368.77;;;20.87;90.21
49463;BME280;35357;51.722;0.500;2022-10-20T11:47:16;100371.19;;;20.75;89.93
49463;BME280;35357;51.722;0.500;2022-10-20T11:49:44;100366.80;;;21.14;88.42
49463;BME280;35357;51.722;0.500;2022-10-20T11:52:27;100363.81;;;21.18;89.97
49463;BME280;35357;51.722;0.500;2022-10-20T11:56:13;100365.26;;;21.11;87.78
49463;BME280;35357;51.722;0.500;2022-10-20T12:00:19;100352.50;;;21.11;91.00
49463;BME280;35357;51.722;0.500;2022-10-20T12:03:33;100345.98;;;21.54;90.65
49463;BME280;35357;51.722;0.500;2022-10-20T12:06:26;100342.28;;;21.81;87.69
49463;BME280;35357;51.722;0.500;2022-10-20T12:09:58;100338.91;;;21.71;87.30
49463;BME280;35357;51.722;0.500;2022-10-20T12:12:33;100336.19;;;21.15;88.21
49463;BME280;35357;51.722;0.500;2022-10-20T12:15:18;100336.74;;;21.80;86.84
49463;BME280;35357;51.722;0.500;2022-10-20T12:17:46;100333.37;;;21.10;86.60
49463;BME280;35357;51.722;0.500;2022-10-20T12:21:53;100327.24;;;21.61;86.89
49463;BME280;35357;51.722;0.500;2022-10-20T12:24:31;100319.90;;;21.13;86.72
49463;BME280;35357;51.722;0.500;2022-10-20T12:27:14;100315.19;;;21.52;85.69
49463;BME280;35357;51.722;0.500;2022-10-20T12:29:50;100309.70;;;21.39;86.04
49463;BME280;35357;51.722;0.500;2022-10-20T12:32:36;100298.98;;;21.10;85.99
49463;BME280;35357;51.722;0.500;2022-10-20T12:35:57;100290.96;;;20.08;86.14
49463;BME280;35357;51.722;0.500;2022-10-20T12:38:25;100286.52;;;19.97;88.08
49463;BME280;35357;51.722;0.500;2022-10-20T12:40:58;100282.94;;;19.65;90.46
49463;BME280;35357;51.722;0.500;2022-10-20T12:43:31;100272.37;;;18.15;97.53
49463;BME280;35357;51.722;0.500;2022-10-20T12:46:06;100275.31;;;17.42;100.00
49463;BME280;35357;51.722;0.500;2022-10-20T12:48:40;100277.15;;;18.26;100.00
49463;BME280;35357;51.722;0.500;2022-10-20T12:51:17;100276.00;;;18.80;100.00
49463;BME280;35357;51.722;0.500;2022-10-20T12:53:58;100270.40;;;18.97;100.00
49463;BME280;35357;51.722;0.500;2022-10-20T12:56:31;100269.30;;;19.61;98.70
49463;BME280;35357;51.722;0.500;2022-10-20T12:59:37;100266.50;;;20.01;97.32
49463;BME280;35357;51.722;0.500;2022-10-20T13:02:30;100266.56;;;20.37;96.63
49463;BME280;35357;51.722;0.500;2022-10-20T13:05:00;100265.39;;;20.39;93.34
49463;BME280;35357;51.722;0.500;2022-10-20T13:08:34;100260.50;;;20.00;95.85
49463;BME280;35357;51.722;0.500;2022-10-20T13:11:42;100248.47;;;19.79;97.45